Time;durP1;ratioP1;P1;durP2;ratioP2;P2;SDS_P1;SDS_P2;PMS_P1;PMS_P2;Temp;Humidity;BMP_temperature;BMP_pressure;BME280_temperature;BME280_humidity;BME280_pressure;Samples;Min_cycle;Max_cycle;Signal;HPM_P1;HPM_P2
2023/09/01 00:02:13;;;;;;;1.50;1.00;;;15.90;98.20;;;;;;4927313;29;20490;-83
2023/09/01 00:04:58;;;;;;;1.50;1.00;;;15.90;98.20;;;;;;4940651;28;20483;-81
2023/09/01 00:07:26;;;;;;;1.50;1.00;;;15.90;98.20;;;;;;4932212;28;20485;-81
2023/09/01 00:09:53;;;;;;;1.50;1.00;;;15.90;98.20;;;;;;4936143;29;20468;-81
2023/09/01 00:12:57;;;;;;;1.50;1.00;;;15.90;98.20;;;;;;4931150;29;20486;-80
2023/09/01 00:15:23;;;;;;;1.50;1.00;;;15.90;98.20;;;;;;4933307;29;20971;-81
2023/09/01 00:17:50;;;;;;;1.50;1.00;;;15.90;98.20;;;;;;4922631;29;20477;-78
2023/09/01 00:20:17;;;;;;;1.50;1.00;;;16.00;98.20;;;;;;4932934;29;20491;-81
2023/09/01 00:22:45;;;;;;;1.50;1.10;;;16.00;98.20;;;;;;4932936;29;20487;-79
2023/09/01 00:25:12;;;;;;;1.50;1.00;;;16.00;98.20;;;;;;4932589;29;20607;-80
2023/09/01 00:27:39;;;;;;;1.50;1.10;;;16.00;98.20;;;;;;4928435;29;21018;-79
2023/09/01 00:30:07;;;;;;;1.47;1.00;;;16.00;98.20;;;;;;4935298;29;20478;-79
2023/09/01 00:32:35;;;;;;;1.50;1.00;;;16.00;98.20;;;;;;4919011;29;20515;-82
2023/09/01 00:35:03;;;;;;;1.50;1.00;;;16.00;98.20;;;;;;4934942;29;20582;-82
2023/09/01 00:37:30;;;;;;;1.50;1.00;;;16.00;98.20;;;;;;4932572;28;20566;-82
2023/09/01 00:39:58;;;;;;;1.50;0.90;;;16.00;98.20;;;;;;4926498;29;20494;-81
2023/09/01 00:42:24;;;;;;;1.47;0.97;;;16.00;98.20;;;;;;4926924;29;20483;-81
2023/09/01 00:44:51;;;;;;;1.50;1.00;;;16.00;98.20;;;;;;4936383;29;21045;-81
2023/09/01 00:47:19;;;;;;;1.47;1.00;;;16.00;98.20;;;;;;4921294;29;20487;-82
2023/09/01 00:49:46;;;;;;;1.50;1.00;;;16.00;98.20;;;;;;4933265;29;20523;-82
2023/09/01 00:52:12;;;;;;;1.50;1.00;;;16.10;98.20;;;;;;4918679;29;20484;-81
2023/09/01 00:54:39;;;;;;;1.50;1.00;;;16.10;98.20;;;;;;4934073;29;21003;-82
2023/09/01 00:57:07;;;;;;;1.50;1.00;;;16.10;98.20;;;;;;4933354;29;21115;-82
2023/09/01 00:59:35;;;;;;;1.50;1.00;;;16.10;98.20;;;;;;4928601;29;20563;-81
2023/09/01 01:02:04;;;;;;;1.50;1.00;;;16.10;98.20;;;;;;4924025;29;21088;-81
2023/09/01 01:04:31;;;;;;;1.50;1.00;;;16.10;98.20;;;;;;4928039;29;20515;-84
2023/09/01 01:07:07;;;;;;;1.50;1.00;;;16.10;98.20;;;;;;4930851;29;20474;-81
2023/09/01 01:09:41;;;;;;;1.47;1.00;;;16.10;98.20;;;;;;4935215;29;20467;-82
2023/09/01 01:12:21;;;;;;;1.50;1.00;;;16.10;98.20;;;;;;4914565;29;21199;-84
2023/09/01 01:14:52;;;;;;;1.50;0.90;;;16.10;98.20;;;;;;4920565;29;20513;-81
2023/09/01 01:17:21;;;;;;;1.50;1.00;;;16.10;98.20;;;;;;4917968;29;20575;-79
2023/09/01 01:19:51;;;;;;;1.50;1.00;;;16.10;98.20;;;;;;4928033;29;20490;-78
2023/09/01 01:22:29;;;;;;;1.47;0.90;;;16.10;98.20;;;;;;4918588;29;20491;-81
2023/09/01 01:24:57;;;;;;;1.50;1.00;;;16.10;98.20;;;;;;4920513;29;20515;-80
2023/09/01 01:27:24;;;;;;;1.50;1.00;;;16.10;98.20;;;;;;4927062;29;21056;-80
2023/09/01 01:29:51;;;;;;;1.50;1.00;;;16.10;98.20;;;;;;4932120;29;20520;-81
2023/09/01 01:32:18;;;;;;;1.50;0.90;;;16.10;98.20;;;;;;4927046;28;21024;-80
2023/09/01 01:34:54;;;;;;;1.50;1.00;;;16.10;98.20;;;;;;4932076;28;20515;-82
2023/09/01 01:37:30;;;;;;;1.47;0.90;;;16.10;98.20;;;;;;4925658;29;20479;-83
2023/09/01 01:40:00;;;;;;;1.43;0.90;;;16.10;98.20;;;;;;4929787;29;20492;-83
2023/09/01 01:42:30;;;;;;;1.50;1.00;;;16.10;98.20;;;;;;4920856;28;20851;-83
2023/09/01 01:44:59;;;;;;;1.43;0.90;;;16.10;98.20;;;;;;4926370;29;20494;-81
2023/09/01 01:47:26;;;;;;;1.50;1.10;;;16.10;98.20;;;;;;4923067;29;20836;-79
2023/09/01 01:49:53;;;;;;;1.50;1.00;;;16.10;98.20;;;;;;4927050;29;20469;-82
2023/09/01 01:52:20;;;;;;;1.50;1.00;;;16.20;98.20;;;;;;4916194;29;20488;-81
2023/09/01 01:54:47;;;;;;;1.50;1.00;;;16.20;98.20;;;;;;4924754;29;20549;-84
2023/09/01 01:57:15;;;;;;;1.50;0.97;;;16.10;98.20;;;;;;4916518;29;20506;-84
2023/09/01 01:59:42;;;;;;;1.40;0.97;;;16.10;98.20;;;;;;4932406;29;20464;-81
2023/09/01 02:02:09;;;;;;;1.50;0.90;;;16.20;98.20;;;;;;4924186;29;20480;-82
2023/09/01 02:04:36;;;;;;;1.50;1.07;;;16.20;98.20;;;;;;4922707;29;20495;-83
2023/09/01 02:07:05;;;;;;;1.47;0.90;;;16.20;98.20;;;;;;4925985;29;20508;-83
2023/09/01 02:09:32;;;;;;;1.47;0.93;;;16.10;98.20;;;;;;4929322;29;20740;-82
2023/09/01 02:11:59;;;;;;;1.60;1.27;;;16.20;98.20;;;;;;4921650;28;20483;-81
2023/09/01 02:14:27;;;;;;;1.50;0.90;;;16.20;98.20;;;;;;4930552;28;21000;-81
2023/09/01 02:16:54;;;;;;;1.50;1.00;;;16.10;98.20;;;;;;4915554;29;20636;-81
2023/09/01 02:19:21;;;;;;;1.50;1.00;;;16.10;98.20;;;;;;4924954;29;20470;-80
2023/09/01 02:21:48;;;;;;;1.50;1.00;;;16.20;98.20;;;;;;4916499;29;20497;-82
2023/09/01 02:24:15;;;;;;;1.50;1.00;;;16.10;98.20;;;;;;4930261;28;20798;-80
2023/09/01 02:32:12;;;;;;;1.50;1.10;;;16.20;98.20;;;;;;4921035;28;20490;-82
2023/09/01 02:34:39;;;;;;;1.50;1.00;;;16.20;98.20;;;;;;4932198;29;20514;-80
2023/09/01 02:37:05;;;;;;;1.50;1.10;;;16.20;98.20;;;;;;4927399;28;21049;-81
2023/09/01 02:39:32;;;;;;;1.50;0.97;;;16.20;98.20;;;;;;4929756;29;20468;-83
2023/09/01 02:42:01;;;;;;;1.50;1.00;;;16.20;98.20;;;;;;4926864;29;20485;-80
2023/09/01 02:44:29;;;;;;;1.50;0.90;;;16.20;98.20;;;;;;4933332;29;21078;-81
2023/09/01 02:46:56;;;;;;;1.50;1.00;;;16.20;98.20;;;;;;4917108;28;20917;-81
2023/09/01 02:49:22;;;;;;;1.50;1.00;;;16.20;98.20;;;;;;4928415;29;20474;-82
2023/09/01 02:51:49;;;;;;;1.50;0.90;;;16.20;98.20;;;;;;4920784;29;20495;-80
2023/09/01 02:54:16;;;;;;;1.50;1.00;;;16.20;98.20;;;;;;4930265;29;20940;-82
2023/09/01 02:56:43;;;;;;;1.50;1.00;;;16.20;98.20;;;;;;4914729;29;20547;-81
2023/09/01 02:59:10;;;;;;;1.50;1.00;;;16.30;98.20;;;;;;4931375;28;20463;-82
2023/09/01 03:01:38;;;;;;;1.50;0.90;;;16.30;98.20;;;;;;4919520;29;20915;-83
2023/09/01 03:04:06;;;;;;;1.47;0.97;;;16.20;98.20;;;;;;4923368;29;20498;-84
2023/09/01 03:06:34;;;;;;;1.50;0.90;;;16.20;98.20;;;;;;4916126;29;20510;-82
2023/09/01 03:09:02;;;;;;;1.50;1.00;;;16.30;98.20;;;;;;4930138;29;20562;-84
2023/09/01 03:11:29;;;;;;;1.50;0.90;;;16.30;98.20;;;;;;4914179;28;20497;-84
2023/09/01 03:13:55;;;;;;;1.47;1.00;;;16.30;98.20;;;;;;4930706;28;20873;-80
2023/09/01 03:16:23;;;;;;;1.50;0.90;;;16.20;98.20;;;;;;4916864;28;20479;-79
2023/09/01 03:18:57;;;;;;;1.40;1.00;;;16.20;98.20;;;;;;4934844;29;20546;-82
2023/09/01 03:21:23;;;;;;;1.50;0.90;;;16.20;98.20;;;;;;4916781;29;20555;-84
2023/09/01 03:23:50;;;;;;;1.50;0.97;;;16.20;98.20;;;;;;4928167;29;20608;-84
2023/09/01 03:26:17;;;;;;;1.50;1.00;;;16.20;98.20;;;;;;4925260;29;20890;-80
2023/09/01 03:28:44;;;;;;;1.50;0.90;;;16.20;98.20;;;;;;4933757;29;20467;-80
2023/09/01 03:31:11;;;;;;;1.47;0.90;;;16.20;98.20;;;;;;4920586;29;20914;-82
2023/09/01 03:33:38;;;;;;;1.47;0.90;;;16.20;98.20;;;;;;4935506;28;20492;-79
2023/09/01 03:36:08;;;;;;;1.47;1.00;;;16.10;98.20;;;;;;4925414;29;20550;-83
2023/09/01 03:38:35;;;;;;;1.50;0.90;;;16.10;98.20;;;;;;4938724;29;20464;-82
2023/09/01 03:41:02;;;;;;;1.50;0.90;;;16.10;98.20;;;;;;4925377;29;20490;-80
2023/09/01 03:43:29;;;;;;;1.50;1.00;;;16.20;98.20;;;;;;4935531;29;20483;-83
2023/09/01 03:45:57;;;;;;;1.50;0.97;;;16.20;98.20;;;;;;4922951;29;20472;-82
2023/09/01 03:48:24;;;;;;;1.50;1.00;;;16.20;98.20;;;;;;4929698;29;20459;-81
2023/09/01 03:53:44;;;;;;;1.47;0.93;;;16.20;98.20;;;;;;5135978;27;20581;-81
2023/09/01 03:56:13;;;;;;;1.50;1.00;;;16.10;98.20;;;;;;5104542;27;20536;-81
2023/09/01 03:58:41;;;;;;;2.60;2.40;;;16.10;98.20;;;;;;5089287;28;20484;-81
2023/09/01 04:01:09;;;;;;;1.50;0.90;;;16.10;98.20;;;;;;5061530;28;20479;-80
2023/09/01 04:03:36;;;;;;;1.50;1.00;;;16.10;98.20;;;;;;5037701;28;20477;-78
2023/09/01 04:06:03;;;;;;;1.50;1.00;;;16.10;98.20;;;;;;5022808;28;20462;-81
2023/09/01 04:08:30;;;;;;;1.50;0.90;;;16.10;98.20;;;;;;5045711;28;20531;-80
2023/09/01 04:10:59;;;;;;;1.47;1.00;;;16.10;98.20;;;;;;5032673;28;20463;-82
2023/09/01 04:13:25;;;;;;;1.47;0.90;;;16.10;98.20;;;;;;5044756;28;20563;-82
2023/09/01 04:15:52;;;;;;;1.50;1.00;;;16.10;98.20;;;;;;5037204;28;20493;-82
2023/09/01 04:18:19;;;;;;;1.50;1.00;;;16.10;98.20;;;;;;5052826;28;20463;-80
2023/09/01 04:20:49;;;;;;;1.50;1.10;;;16.10;98.20;;;;;;5048439;28;20505;-81
2023/09/01 04:23:16;;;;;;;1.50;0.90;;;16.10;98.20;;;;;;5046053;28;20526;-79
2023/09/01 04:25:45;;;;;;;1.43;1.00;;;16.00;98.20;;;;;;5055083;28;20464;-80
2023/09/01 04:28:14;;;;;;;1.50;1.00;;;16.10;98.20;;;;;;5041113;28;20473;-80
2023/09/01 04:30:42;;;;;;;1.47;0.90;;;16.10;98.20;;;;;;5061632;28;20545;-80
2023/09/01 04:33:09;;;;;;;1.50;1.00;;;16.10;98.20;;;;;;5059722;28;20574;-83
2023/09/01 04:35:36;;;;;;;3.87;2.20;;;16.10;98.20;;;;;;5049226;28;20482;-81
2023/09/01 04:38:03;;;;;;;1.50;1.10;;;16.10;98.20;;;;;;5049162;28;20872;-80
2023/09/01 04:40:31;;;;;;;1.47;0.90;;;16.10;98.20;;;;;;5057049;28;20526;-82
2023/09/01 04:42:58;;;;;;;1.50;1.00;;;16.10;98.20;;;;;;5061718;28;20480;-83
2023/09/01 04:45:26;;;;;;;1.50;1.00;;;16.10;98.20;;;;;;5072274;28;20697;-80
2023/09/01 04:47:53;;;;;;;1.47;0.90;;;16.10;98.20;;;;;;5048954;28;20487;-82
2023/09/01 04:50:20;;;;;;;1.50;1.00;;;16.10;98.20;;;;;;5034212;28;20468;-82
2023/09/01 04:52:47;;;;;;;1.50;1.00;;;16.10;98.20;;;;;;5036379;28;20482;-82
2023/09/01 04:55:14;;;;;;;1.50;1.00;;;16.10;98.20;;;;;;5036980;28;20501;-82
2023/09/01 04:57:41;;;;;;;1.50;1.00;;;16.10;98.20;;;;;;5036952;28;20513;-82
2023/09/01 05:00:15;;;;;;;1.50;1.00;;;16.10;98.20;;;;;;5047991;28;20558;-83
2023/09/01 05:02:44;;;;;;;1.50;1.00;;;16.10;98.20;;;;;;5037573;28;20489;-81
2023/09/01 05:05:11;;;;;;;1.50;1.00;;;16.20;98.20;;;;;;5027457;28;20556;-83
2023/09/01 05:07:38;;;;;;;1.60;1.50;;;16.10;98.20;;;;;;5024591;28;20470;-82
2023/09/01 05:10:06;;;;;;;1.50;1.00;;;16.10;98.20;;;;;;5029694;28;20468;-82
2023/09/01 05:12:33;;;;;;;1.50;1.00;;;16.10;98.20;;;;;;5023668;28;20490;-82
2023/09/01 05:15:00;;;;;;;1.50;1.00;;;16.10;98.20;;;;;;5028133;28;20482;-82
2023/09/01 05:17:27;;;;;;;1.50;1.10;;;16.10;98.20;;;;;;5021171;28;20576;-82
2023/09/01 05:19:57;;;;;;;1.50;0.90;;;16.10;98.20;;;;;;5022962;28;20464;-83
2023/09/01 05:22:24;;;;;;;1.47;0.90;;;16.00;98.20;;;;;;5025802;28;20482;-82
2023/09/01 05:24:53;;;;;;;1.47;1.00;;;16.10;98.20;;;;;;5021598;28;20484;-84
2023/09/01 05:27:20;;;;;;;1.50;1.23;;;16.10;98.20;;;;;;5016070;28;20503;-82
2023/09/01 05:29:47;;;;;;;1.50;0.90;;;16.10;98.20;;;;;;5025167;28;20548;-83
2023/09/01 05:32:14;;;;;;;1.47;0.90;;;16.10;98.20;;;;;;5025973;28;20990;-82
2023/09/01 05:34:41;;;;;;;1.60;1.40;;;16.10;98.20;;;;;;5034064;28;20514;-82
2023/09/01 05:37:11;;;;;;;1.50;1.00;;;16.10;98.20;;;;;;5016709;28;20515;-82
2023/09/01 05:39:39;;;;;;;1.47;0.90;;;16.10;98.20;;;;;;5031032;28;20486;-82
2023/09/01 05:42:06;;;;;;;1.50;0.90;;;16.10;98.20;;;;;;5017844;28;20556;-83
2023/09/01 05:44:34;;;;;;;1.50;1.07;;;16.20;98.20;;;;;;5032323;28;20475;-82
2023/09/01 05:47:00;;;;;;;1.53;1.13;;;16.20;98.20;;;;;;5018740;28;20483;-83
2023/09/01 05:49:27;;;;;;;1.43;0.90;;;16.20;98.20;;;;;;5025586;28;20492;-84
2023/09/01 05:51:54;;;;;;;1.50;1.00;;;16.20;98.20;;;;;;5017187;28;20544;-82
2023/09/01 05:54:22;;;;;;;1.50;1.00;;;16.20;98.20;;;;;;5036995;28;20494;-83
2023/09/01 05:56:49;;;;;;;1.50;1.00;;;16.20;98.20;;;;;;5030021;28;20498;-80
2023/09/01 05:59:16;;;;;;;1.50;1.00;;;16.30;98.20;;;;;;5042753;28;20520;-83
2023/09/01 06:01:43;;;;;;;1.50;1.00;;;16.30;98.20;;;;;;5033331;28;20474;-80
2023/09/01 06:04:10;;;;;;;1.50;1.00;;;16.30;98.20;;;;;;5043361;28;20485;-84
2023/09/01 06:06:37;;;;;;;1.50;1.00;;;16.40;98.20;;;;;;5035270;28;20807;-81
2023/09/01 06:09:05;;;;;;;1.43;1.00;;;16.30;98.20;;;;;;5044867;28;20513;-82
2023/09/01 06:11:33;;;;;;;1.50;1.00;;;16.40;98.20;;;;;;5029593;28;20548;-82
2023/09/01 06:14:01;;;;;;;1.50;1.00;;;16.40;98.20;;;;;;5040610;28;20588;-84
2023/09/01 06:16:28;;;;;;;1.50;1.00;;;16.50;98.20;;;;;;5034515;28;20482;-81
2023/09/01 06:18:56;;;;;;;1.50;1.00;;;16.50;98.20;;;;;;5048644;28;20498;-82
2023/09/01 06:21:23;;;;;;;1.50;0.90;;;16.50;98.20;;;;;;5031330;28;20809;-82
2023/09/01 06:23:54;;;;;;;1.50;1.00;;;16.50;98.20;;;;;;5036802;28;20562;-79
2023/09/01 06:26:21;;;;;;;1.50;1.00;;;16.50;98.20;;;;;;5031996;28;20466;-81
2023/09/01 06:28:50;;;;;;;1.50;0.90;;;16.60;98.20;;;;;;5331354;22;21053;-79
2023/09/01 06:31:17;;;;;;;1.50;1.00;;;16.60;98.20;;;;;;4998250;28;20471;-81
2023/09/01 06:33:46;;;;;;;1.50;1.00;;;16.70;98.20;;;;;;5014220;28;20857;-78
2023/09/01 06:36:14;;;;;;;1.50;1.00;;;16.70;98.20;;;;;;4993005;28;20475;-80
2023/09/01 06:38:41;;;;;;;1.50;1.00;;;16.70;98.20;;;;;;5005371;28;20481;-81
2023/09/01 06:41:08;;;;;;;1.50;1.07;;;16.80;98.20;;;;;;4978324;28;20858;-80
2023/09/01 06:43:35;;;;;;;1.50;1.00;;;16.90;98.20;;;;;;4996918;28;20490;-80
2023/09/01 06:46:03;;;;;;;1.50;0.90;;;17.00;98.20;;;;;;4979461;28;20471;-81
2023/09/01 06:48:30;;;;;;;1.50;1.00;;;16.90;98.20;;;;;;4988587;28;20646;-81
2023/09/01 06:51:00;;;;;;;1.57;1.10;;;17.00;98.20;;;;;;4979760;28;20902;-81
2023/09/01 06:53:27;;;;;;;1.50;0.90;;;17.00;98.20;;;;;;4995277;28;20882;-80
2023/09/01 06:55:55;;;;;;;1.50;1.00;;;17.10;98.20;;;;;;4976727;28;20472;-80
2023/09/01 06:58:22;;;;;;;1.50;1.00;;;17.10;98.20;;;;;;4996461;28;20513;-80
2023/09/01 07:00:51;;;;;;;1.50;1.00;;;17.10;98.20;;;;;;4978572;28;20927;-79
2023/09/01 07:03:19;;;;;;;1.50;1.00;;;17.20;98.20;;;;;;4986986;28;20868;-81
2023/09/01 07:05:54;;;;;;;1.50;0.90;;;17.20;98.20;;;;;;4981609;28;20540;-82
2023/09/01 07:08:21;;;;;;;1.50;1.00;;;17.20;98.20;;;;;;4993517;28;20492;-81
2023/09/01 07:14:15;;;;;;;1.50;1.10;;;17.20;98.20;;;;;;4966244;28;20569;-78
2023/09/01 07:16:42;;;;;;;1.50;1.00;;;17.30;98.20;;;;;;4971669;28;20999;-79
2023/09/01 07:19:10;;;;;;;1.50;0.90;;;17.30;98.20;;;;;;4981635;28;20477;-79
2023/09/01 07:21:37;;;;;;;1.50;1.20;;;17.40;98.20;;;;;;4981022;28;20613;-80
2023/09/01 07:24:05;;;;;;;1.50;0.90;;;17.40;98.20;;;;;;4992657;28;20508;-79
2023/09/01 07:26:32;;;;;;;1.50;1.00;;;17.40;98.20;;;;;;4980886;28;20491;-79
2023/09/01 07:28:58;;;;;;;1.50;1.00;;;17.50;98.20;;;;;;4989021;28;20524;-79
2023/09/01 07:31:26;;;;;;;1.50;0.90;;;17.50;98.20;;;;;;4973135;28;20472;-79
2023/09/01 07:33:54;;;;;;;1.50;0.90;;;17.60;98.20;;;;;;4985714;28;20491;-79
2023/09/01 07:36:22;;;;;;;1.50;1.00;;;17.60;98.20;;;;;;4975820;28;20537;-79
2023/09/01 07:38:49;;;;;;;1.50;1.00;;;17.60;98.20;;;;;;4991099;28;20508;-79
2023/09/01 07:41:16;;;;;;;1.50;0.90;;;17.70;98.20;;;;;;4975158;28;20483;-79
2023/09/01 07:43:43;;;;;;;1.50;1.00;;;17.70;98.20;;;;;;4994520;28;20823;-79
2023/09/01 07:46:11;;;;;;;1.50;1.00;;;17.70;98.20;;;;;;4972021;28;20481;-79
2023/09/01 07:48:37;;;;;;;1.50;0.93;;;17.70;98.20;;;;;;4981871;28;20489;-80
2023/09/01 07:51:05;;;;;;;1.50;0.90;;;17.70;98.20;;;;;;4973723;28;20528;-79
2023/09/01 07:53:33;;;;;;;1.50;0.90;;;17.80;98.20;;;;;;4977274;28;20497;-80
2023/09/01 07:56:00;;;;;;;1.50;1.00;;;17.80;98.20;;;;;;4969170;28;20487;-79
2023/09/01 07:58:27;;;;;;;1.50;1.00;;;17.80;98.20;;;;;;4983475;28;20563;-79
2023/09/01 08:00:54;;;;;;;1.50;1.00;;;17.80;98.20;;;;;;4984930;28;20480;-79
2023/09/01 08:03:21;;;;;;;1.50;1.00;;;17.80;98.20;;;;;;4996894;28;20726;-80
2023/09/01 08:05:48;;;;;;;1.50;1.00;;;17.70;98.20;;;;;;4975526;28;20465;-80
2023/09/01 08:08:15;;;;;;;1.50;0.90;;;17.70;98.20;;;;;;4998456;28;20485;-79
2023/09/01 08:10:44;;;;;;;1.60;1.20;;;17.60;98.20;;;;;;4983184;28;20461;-79
2023/09/01 08:13:11;;;;;;;1.50;0.90;;;17.50;98.20;;;;;;4991478;28;20473;-80
2023/09/01 08:15:38;;;;;;;1.50;0.90;;;17.40;98.20;;;;;;4983983;28;20855;-79
2023/09/01 08:18:06;;;;;;;1.50;0.97;;;17.40;98.20;;;;;;4986818;28;20488;-80
2023/09/01 08:20:33;;;;;;;1.50;0.90;;;17.30;98.20;;;;;;4981572;28;20501;-79
2023/09/01 08:23:00;;;;;;;1.50;1.00;;;17.30;98.20;;;;;;4987864;28;20483;-80
2023/09/01 08:25:27;;;;;;;1.50;0.90;;;17.30;98.20;;;;;;4980319;28;20484;-80
2023/09/01 08:27:55;;;;;;;1.60;1.10;;;17.20;98.20;;;;;;4986763;28;20537;-79
2023/09/01 08:30:22;;;;;;;1.50;0.90;;;17.20;98.20;;;;;;4983843;28;20465;-79
2023/09/01 08:32:49;;;;;;;1.60;1.23;;;17.20;98.20;;;;;;4987983;28;20480;-81
2023/09/01 08:35:16;;;;;;;1.50;1.00;;;17.20;98.20;;;;;;4982660;28;20472;-81
2023/09/01 08:37:43;;;;;;;1.50;0.90;;;17.30;98.20;;;;;;4990276;28;20864;-81
2023/09/01 08:40:11;;;;;;;1.50;0.90;;;17.20;98.20;;;;;;4986490;28;20500;-81
2023/09/01 08:42:45;;;;;;;1.50;1.00;;;17.20;98.20;;;;;;4989930;28;20487;-80
2023/09/01 08:45:14;;;;;;;1.50;0.90;;;17.20;98.20;;;;;;4987813;28;20540;-79
2023/09/01 08:47:45;;;;;;;1.50;0.97;;;17.10;98.20;;;;;;4988623;28;20481;-79
2023/09/01 08:50:13;;;;;;;1.53;1.10;;;17.10;98.20;;;;;;4982538;28;20481;-80
2023/09/01 08:52:42;;;;;;;1.50;1.00;;;17.10;98.20;;;;;;4973616;28;21093;-79
2023/09/01 08:55:10;;;;;;;1.50;0.97;;;17.10;98.20;;;;;;4987380;28;20497;-79
2023/09/01 08:57:38;;;;;;;1.50;1.00;;;17.10;98.20;;;;;;4989279;28;20566;-80
2023/09/01 09:00:07;;;;;;;1.50;0.90;;;17.10;98.20;;;;;;4984102;28;20923;-79
2023/09/01 09:02:36;;;;;;;1.50;0.90;;;17.10;98.20;;;;;;4991178;28;20494;-80
2023/09/01 09:05:05;;;;;;;1.50;0.90;;;17.20;98.20;;;;;;4986001;28;20468;-79
2023/09/01 09:07:32;;;;;;;1.50;1.00;;;17.20;98.20;;;;;;4989257;28;20484;-79
2023/09/01 09:10:00;;;;;;;1.50;0.90;;;17.30;98.20;;;;;;4988128;28;20485;-80
2023/09/01 09:12:36;;;;;;;1.50;1.00;;;17.30;98.20;;;;;;4986822;28;20656;-79
2023/09/01 09:15:04;;;;;;;1.47;0.90;;;17.30;98.20;;;;;;4987843;28;20472;-80
2023/09/01 09:17:43;;;;;;;1.50;0.90;;;17.30;98.20;;;;;;4986466;28;20542;-81
2023/09/01 09:20:11;;;;;;;1.50;0.90;;;17.30;98.20;;;;;;4984906;28;20512;-81
2023/09/01 09:22:52;;;;;;;1.50;0.90;;;17.30;98.20;;;;;;4988671;28;20487;-80
2023/09/01 09:25:28;;;;;;;1.50;0.90;;;17.30;98.20;;;;;;4984660;28;20461;-80
2023/09/01 09:27:56;;;;;;;1.50;0.90;;;17.30;98.20;;;;;;4973442;28;20491;-80
2023/09/01 09:30:26;;;;;;;1.50;0.93;;;17.30;98.20;;;;;;4986709;28;20465;-79
2023/09/01 09:33:05;;;;;;;1.50;1.00;;;17.30;98.20;;;;;;4970953;28;20485;-79
2023/09/01 09:35:34;;;;;;;1.50;1.00;;;17.30;98.20;;;;;;4985033;28;20930;-79
2023/09/01 09:38:02;;;;;;;1.50;1.00;;;17.30;98.20;;;;;;4975343;28;20484;-80
2023/09/01 09:40:30;;;;;;;1.50;0.90;;;17.30;98.20;;;;;;4991119;28;20837;-76
2023/09/01 09:42:59;;;;;;;1.50;0.90;;;17.30;98.20;;;;;;4990009;28;20839;-77
2023/09/01 09:45:28;;;;;;;1.50;1.00;;;17.30;98.20;;;;;;4990808;28;20478;-79
2023/09/01 09:47:58;;;;;;;1.50;1.00;;;17.20;98.20;;;;;;4975555;28;20732;-79
2023/09/01 09:50:27;;;;;;;1.50;1.00;;;17.20;98.20;;;;;;4983810;28;20869;-78
2023/09/01 09:52:59;;;;;;;1.80;1.40;;;17.20;98.20;;;;;;4972207;28;21063;-79
2023/09/01 09:55:27;;;;;;;1.50;0.97;;;17.20;98.20;;;;;;4984765;28;20500;-79
2023/09/01 09:58:04;;;;;;;1.50;0.90;;;17.30;98.20;;;;;;4975446;28;20495;-78
2023/09/01 10:00:32;;;;;;;1.50;1.20;;;17.30;98.20;;;;;;4985181;28;20475;-78
2023/09/01 10:03:03;;;;;;;1.50;1.00;;;17.30;98.20;;;;;;4991854;28;20504;-78
2023/09/01 10:05:33;;;;;;;1.50;0.97;;;17.30;98.20;;;;;;4989657;28;20701;-78
2023/09/01 10:08:04;;;;;;;1.60;1.30;;;17.40;98.20;;;;;;4990254;28;21169;-78
2023/09/01 10:10:33;;;;;;;1.50;1.00;;;17.40;98.20;;;;;;4985366;28;20464;-78
2023/09/01 10:13:04;;;;;;;1.50;0.90;;;17.40;98.20;;;;;;4981759;28;20496;-77
2023/09/01 10:15:32;;;;;;;1.50;0.90;;;17.50;98.20;;;;;;4983857;28;20503;-77
2023/09/01 10:18:02;;;;;;;1.50;0.90;;;17.50;98.20;;;;;;4989233;28;20491;-77
2023/09/01 10:20:30;;;;;;;1.50;1.00;;;17.60;98.20;;;;;;4983615;28;20887;-78
2023/09/01 10:22:59;;;;;;;1.50;1.00;;;17.60;98.20;;;;;;4989748;28;20520;-78
2023/09/01 10:25:26;;;;;;;1.50;1.00;;;17.60;98.20;;;;;;4985213;28;20626;-78
2023/09/01 10:28:04;;;;;;;1.50;1.00;;;17.60;98.20;;;;;;4988858;28;20511;-78
2023/09/01 10:30:46;;;;;;;1.50;1.00;;;17.60;98.20;;;;;;4986238;28;20453;-79
2023/09/01 10:33:15;;;;;;;1.50;0.90;;;17.60;98.20;;;;;;4975558;28;20566;-78
2023/09/01 10:35:48;;;;;;;1.50;0.90;;;17.60;98.20;;;;;;4984495;28;20488;-77
2023/09/01 10:38:17;;;;;;;1.47;0.90;;;17.60;98.20;;;;;;4979031;28;20481;-78
2023/09/01 10:40:47;;;;;;;1.50;0.90;;;17.70;98.20;;;;;;4989870;28;20480;-79
2023/09/01 10:43:34;;;;;;;1.50;1.00;;;17.70;98.20;;;;;;4978865;28;20632;-78
2023/09/01 10:46:28;;;;;;;1.50;0.97;;;17.70;98.20;;;;;;4981270;28;20470;-79
2023/09/01 10:48:57;;;;;;;1.50;0.90;;;17.80;98.20;;;;;;4989582;28;20604;-80
2023/09/01 10:51:27;;;;;;;1.50;0.90;;;17.80;98.20;;;;;;4978448;28;20785;-78
2023/09/01 10:53:56;;;;;;;1.50;0.90;;;17.90;98.20;;;;;;4991874;28;20485;-78
2023/09/01 10:56:24;;;;;;;1.50;0.90;;;18.00;98.20;;;;;;4983070;28;20561;-79
2023/09/01 10:58:52;;;;;;;1.50;0.90;;;18.00;98.20;;;;;;4984821;28;20487;-79
2023/09/01 11:01:36;;;;;;;1.50;0.90;;;18.10;98.20;;;;;;4981090;28;20488;-79
2023/09/01 11:04:29;;;;;;;1.53;1.00;;;18.10;98.20;;;;;;4992915;28;20479;-79
2023/09/01 11:07:13;;;;;;;1.50;1.00;;;18.10;98.20;;;;;;4982600;28;20491;-79
2023/09/01 11:09:52;;;;;;;1.50;0.90;;;18.20;98.20;;;;;;4986543;28;20493;-78
2023/09/01 11:12:26;;;;;;;1.50;1.00;;;18.20;98.20;;;;;;4984968;28;20494;-79
2023/09/01 11:14:55;;;;;;;1.50;0.90;;;18.20;98.20;;;;;;4986575;28;20523;-78
2023/09/01 11:17:41;;;;;;;1.50;0.90;;;18.30;98.20;;;;;;4976837;28;20555;-79
2023/09/01 11:20:10;;;;;;;1.50;0.90;;;18.30;98.20;;;;;;4982664;28;20859;-78
2023/09/01 11:22:39;;;;;;;1.50;0.93;;;18.40;98.20;;;;;;4992713;28;20954;-78
2023/09/01 11:25:15;;;;;;;1.57;1.10;;;18.40;98.20;;;;;;4983622;28;21050;-79
2023/09/01 11:27:52;;;;;;;1.50;1.00;;;18.40;98.20;;;;;;4988856;28;20483;-78
2023/09/01 11:30:20;;;;;;;1.50;1.00;;;18.50;98.20;;;;;;4981045;28;20472;-78
2023/09/01 11:32:51;;;;;;;1.50;1.00;;;18.50;98.20;;;;;;4986664;28;20496;-78
2023/09/01 11:35:36;;;;;;;1.50;0.90;;;18.50;98.20;;;;;;4982510;28;20497;-79
2023/09/01 11:38:06;;;;;;;1.50;1.00;;;18.50;98.20;;;;;;4987119;28;20550;-78
2023/09/01 11:40:35;;;;;;;1.50;0.90;;;18.50;98.20;;;;;;4982292;28;20485;-78
2023/09/01 11:43:02;;;;;;;1.50;0.90;;;18.60;98.20;;;;;;4975042;28;20579;-78
2023/09/01 11:45:31;;;;;;;1.50;0.90;;;18.60;98.20;;;;;;4987346;28;20573;-80
2023/09/01 11:47:58;;;;;;;1.60;1.23;;;18.60;98.20;;;;;;4985792;28;20476;-78
2023/09/01 11:50:26;;;;;;;1.57;1.00;;;18.60;98.20;;;;;;4985266;28;20591;-78
2023/09/01 11:52:55;;;;;;;1.57;1.00;;;18.60;98.20;;;;;;4989167;28;20480;-79
2023/09/01 11:55:34;;;;;;;1.50;0.90;;;18.70;98.20;;;;;;4987175;28;20544;-78
2023/09/01 11:58:02;;;;;;;1.50;1.00;;;18.70;98.20;;;;;;4986867;28;20479;-78
2023/09/01 12:00:35;;;;;;;1.50;1.00;;;18.80;98.20;;;;;;4984872;28;20469;-78
2023/09/01 12:03:04;;;;;;;1.50;0.90;;;18.90;98.20;;;;;;4989062;28;20476;-79
2023/09/01 12:05:32;;;;;;;1.50;1.00;;;18.90;98.20;;;;;;4985390;28;20465;-79
2023/09/01 12:08:01;;;;;;;1.60;1.10;;;19.00;98.20;;;;;;4989304;28;20852;-79
2023/09/01 12:10:28;;;;;;;1.50;0.90;;;19.00;98.20;;;;;;4992262;28;20471;-81
2023/09/01 12:13:08;;;;;;;1.50;1.00;;;19.10;98.20;;;;;;4980077;28;20950;-80
2023/09/01 12:15:51;;;;;;;1.53;0.90;;;19.10;98.20;;;;;;4989036;28;20485;-80
2023/09/01 12:18:43;;;;;;;1.50;0.90;;;19.10;98.20;;;;;;4975783;28;20482;-80
2023/09/01 12:21:11;;;;;;;1.50;1.10;;;19.20;98.20;;;;;;4964831;28;20911;-80
2023/09/01 12:23:39;;;;;;;1.53;0.90;;;19.20;98.20;;;;;;4989990;28;20531;-79
2023/09/01 12:26:07;;;;;;;1.50;0.90;;;19.30;98.20;;;;;;4976630;28;20968;-79
2023/09/01 12:28:38;;;;;;;1.50;1.00;;;19.20;98.20;;;;;;4996547;28;20491;-79
2023/09/01 12:31:06;;;;;;;1.50;0.90;;;19.20;98.20;;;;;;4976284;28;20882;-78
2023/09/01 12:33:34;;;;;;;1.50;0.93;;;19.20;98.20;;;;;;4984939;28;20472;-79
2023/09/01 12:36:03;;;;;;;1.50;0.90;;;19.20;98.20;;;;;;4971419;28;20493;-78
2023/09/01 12:38:30;;;;;;;1.50;0.93;;;19.30;98.20;;;;;;4997042;28;20485;-79
2023/09/01 12:41:17;;;;;;;;;;;;;;;;;;;;;
2023/09/01 12:43:46;;;;;;;1.50;0.90;;;19.40;98.20;;;;;;4988753;28;20487;-80
2023/09/01 12:46:13;;;;;;;1.50;0.90;;;19.40;98.20;;;;;;4979158;28;20507;-80
2023/09/01 12:48:40;;;;;;;1.50;0.90;;;19.50;98.20;;;;;;4997641;28;20571;-81
2023/09/01 12:51:07;;;;;;;1.50;0.90;;;19.60;98.20;;;;;;4978225;28;20606;-81
2023/09/01 12:53:34;;;;;;;1.50;0.90;;;19.70;98.20;;;;;;5000193;28;20758;-81
2023/09/01 12:56:10;;;;;;;1.50;0.90;;;19.90;98.20;;;;;;4979111;28;20485;-80
2023/09/01 12:58:37;;;;;;;1.50;0.90;;;20.00;98.20;;;;;;4984880;28;21022;-81
2023/09/01 13:01:06;;;;;;;1.50;0.90;;;20.00;98.20;;;;;;4979880;28;20465;-82
2023/09/01 13:03:33;;;;;;;1.53;0.90;;;20.10;98.20;;;;;;4999112;28;20461;-81
2023/09/01 13:06:10;;;;;;;1.50;0.90;;;20.10;98.20;;;;;;4979317;28;20892;-81
2023/09/01 13:08:37;;;;;;;1.50;0.90;;;20.00;98.20;;;;;;4995755;28;20691;-79
2023/09/01 13:11:07;;;;;;;1.50;0.90;;;20.00;98.20;;;;;;4974977;28;20840;-79